sensor_id;sensor_type;location;lat;lon;timestamp;P1;durP1;ratioP1;P2;durP2;ratioP2
11490;SDS011;5802;52.832;4.758;2022-07-11T00:02:02;1.00;;;0.90;;
11490;SDS011;5802;52.832;4.758;2022-07-11T00:04:30;2.08;;;1.15;;
11490;SDS011;5802;52.832;4.758;2022-07-11T00:06:58;3.85;;;0.95;;
11490;SDS011;5802;52.832;4.758;2022-07-11T00:09:25;2.17;;;0.85;;
11490;SDS011;5802;52.832;4.758;2022-07-11T00:11:51;1.58;;;1.02;;
11490;SDS011;5802;52.832;4.758;2022-07-11T00:14:19;1.63;;;0.90;;
11490;SDS011;5802;52.832;4.758;2022-07-11T00:16:47;2.00;;;1.02;;
11490;SDS011;5802;52.832;4.758;2022-07-11T00:19:14;1.50;;;0.98;;
11490;SDS011;5802;52.832;4.758;2022-07-11T00:21:41;3.08;;;1.17;;
11490;SDS011;5802;52.832;4.758;2022-07-11T00:24:08;1.83;;;0.80;;
11490;SDS011;5802;52.832;4.758;2022-07-11T00:26:35;2.63;;;0.95;;
11490;SDS011;5802;52.832;4.758;2022-07-11T00:29:02;1.92;;;0.90;;
11490;SDS011;5802;52.832;4.758;2022-07-11T00:31:31;1.40;;;1.27;;
11490;SDS011;5802;52.832;4.758;2022-07-11T00:33:59;1.17;;;0.80;;
11490;SDS011;5802;52.832;4.758;2022-07-11T00:36:25;3.25;;;1.00;;
11490;SDS011;5802;52.832;4.758;2022-07-11T00:38:52;0.88;;;0.73;;
11490;SDS011;5802;52.832;4.758;2022-07-11T00:41:19;1.45;;;1.00;;
11490;SDS011;5802;52.832;4.758;2022-07-11T00:43:50;1.92;;;1.10;;
11490;SDS011;5802;52.832;4.758;2022-07-11T00:46:17;0.80;;;0.70;;
11490;SDS011;5802;52.832;4.758;2022-07-11T00:48:45;1.65;;;1.02;;
11490;SDS011;5802;52.832;4.758;2022-07-11T00:51:12;1.88;;;1.00;;
11490;SDS011;5802;52.832;4.758;2022-07-11T00:53:39;1.15;;;0.80;;
11490;SDS011;5802;52.832;4.758;2022-07-11T00:56:07;1.67;;;0.88;;
11490;SDS011;5802;52.832;4.758;2022-07-11T00:58:34;2.65;;;1.10;;
11490;SDS011;5802;52.832;4.758;2022-07-11T01:01:01;1.70;;;1.10;;
11490;SDS011;5802;52.832;4.758;2022-07-11T01:03:28;2.90;;;1.10;;
11490;SDS011;5802;52.832;4.758;2022-07-11T01:05:56;1.50;;;0.95;;
11490;SDS011;5802;52.832;4.758;2022-07-11T01:08:23;2.78;;;1.08;;
11490;SDS011;5802;52.832;4.758;2022-07-11T01:10:50;2.50;;;1.10;;
11490;SDS011;5802;52.832;4.758;2022-07-11T01:13:16;1.42;;;1.00;;
11490;SDS011;5802;52.832;4.758;2022-07-11T01:15:43;3.20;;;1.10;;
11490;SDS011;5802;52.832;4.758;2022-07-11T01:18:10;2.45;;;1.10;;
11490;SDS011;5802;52.832;4.758;2022-07-11T01:20:36;3.08;;;0.98;;
11490;SDS011;5802;52.832;4.758;2022-07-11T01:23:04;0.85;;;0.75;;
11490;SDS011;5802;52.832;4.758;2022-07-11T01:25:31;2.38;;;1.10;;
11490;SDS011;5802;52.832;4.758;2022-07-11T01:28:01;1.60;;;1.10;;
11490;SDS011;5802;52.832;4.758;2022-07-11T01:30:30;2.10;;;1.13;;
11490;SDS011;5802;52.832;4.758;2022-07-11T01:32:57;1.67;;;1.00;;
11490;SDS011;5802;52.832;4.758;2022-07-11T01:35:24;3.10;;;1.08;;
11490;SDS011;5802;52.832;4.758;2022-07-11T01:37:53;1.92;;;0.95;;
11490;SDS011;5802;52.832;4.758;2022-07-11T01:40:21;3.35;;;1.27;;
11490;SDS011;5802;52.832;4.758;2022-07-11T01:42:47;2.50;;;1.00;;
11490;SDS011;5802;52.832;4.758;2022-07-11T01:45:14;1.05;;;0.95;;
11490;SDS011;5802;52.832;4.758;2022-07-11T01:47:41;1.58;;;1.08;;
11490;SDS011;5802;52.832;4.758;2022-07-11T01:50:08;2.97;;;1.02;;
11490;SDS011;5802;52.832;4.758;2022-07-11T01:52:35;1.73;;;1.08;;
11490;SDS011;5802;52.832;4.758;2022-07-11T01:55:01;2.95;;;1.00;;
11490;SDS011;5802;52.832;4.758;2022-07-11T01:57:29;1.60;;;1.00;;
11490;SDS011;5802;52.832;4.758;2022-07-11T01:59:56;1.42;;;0.90;;
11490;SDS011;5802;52.832;4.758;2022-07-11T02:02:23;1.40;;;1.10;;
11490;SDS011;5802;52.832;4.758;2022-07-11T02:04:49;2.30;;;1.00;;
11490;SDS011;5802;52.832;4.758;2022-07-11T02:07:16;1.17;;;0.95;;
11490;SDS011;5802;52.832;4.758;2022-07-11T02:10:03;2.00;;;1.10;;
11490;SDS011;5802;52.832;4.758;2022-07-11T02:12:31;2.05;;;1.20;;
11490;SDS011;5802;52.832;4.758;2022-07-11T02:14:58;1.77;;;1.13;;
11490;SDS011;5802;52.832;4.758;2022-07-11T02:17:24;3.85;;;1.20;;
11490;SDS011;5802;52.832;4.758;2022-07-11T02:19:51;1.83;;;1.13;;
11490;SDS011;5802;52.832;4.758;2022-07-11T02:22:18;1.20;;;0.90;;
11490;SDS011;5802;52.832;4.758;2022-07-11T02:24:45;1.42;;;1.05;;
11490;SDS011;5802;52.832;4.758;2022-07-11T02:27:11;1.83;;;1.10;;
11490;SDS011;5802;52.832;4.758;2022-07-11T02:29:40;2.33;;;1.13;;
11490;SDS011;5802;52.832;4.758;2022-07-11T02:32:06;1.23;;;1.00;;
11490;SDS011;5802;52.832;4.758;2022-07-11T02:34:33;1.42;;;0.85;;
11490;SDS011;5802;52.832;4.758;2022-07-11T02:37:00;1.75;;;1.08;;
11490;SDS011;5802;52.832;4.758;2022-07-11T02:39:27;2.65;;;1.20;;
11490;SDS011;5802;52.832;4.758;2022-07-11T02:41:53;1.25;;;1.00;;
11490;SDS011;5802;52.832;4.758;2022-07-11T02:44:20;1.38;;;1.13;;
11490;SDS011;5802;52.832;4.758;2022-07-11T02:46:48;2.72;;;1.13;;
11490;SDS011;5802;52.832;4.758;2022-07-11T02:49:15;1.23;;;1.00;;
11490;SDS011;5802;52.832;4.758;2022-07-11T02:51:41;1.75;;;1.10;;
11490;SDS011;5802;52.832;4.758;2022-07-11T02:54:08;1.85;;;1.00;;
11490;SDS011;5802;52.832;4.758;2022-07-11T02:56:34;1.20;;;0.95;;
11490;SDS011;5802;52.832;4.758;2022-07-11T02:59:01;1.52;;;0.95;;
11490;SDS011;5802;52.832;4.758;2022-07-11T03:01:28;1.42;;;1.10;;
11490;SDS011;5802;52.832;4.758;2022-07-11T03:03:56;1.45;;;1.10;;
11490;SDS011;5802;52.832;4.758;2022-07-11T03:06:22;1.30;;;1.20;;
11490;SDS011;5802;52.832;4.758;2022-07-11T03:08:50;1.35;;;1.02;;
11490;SDS011;5802;52.832;4.758;2022-07-11T03:11:17;2.67;;;1.20;;
11490;SDS011;5802;52.832;4.758;2022-07-11T03:13:44;3.35;;;1.40;;
11490;SDS011;5802;52.832;4.758;2022-07-11T03:16:11;1.45;;;1.15;;
11490;SDS011;5802;52.832;4.758;2022-07-11T03:18:37;1.15;;;0.90;;
11490;SDS011;5802;52.832;4.758;2022-07-11T03:21:05;1.20;;;1.00;;
11490;SDS011;5802;52.832;4.758;2022-07-11T03:23:33;2.00;;;1.30;;
11490;SDS011;5802;52.832;4.758;2022-07-11T03:26:00;2.78;;;1.33;;
11490;SDS011;5802;52.832;4.758;2022-07-11T03:28:27;1.23;;;0.90;;
11490;SDS011;5802;52.832;4.758;2022-07-11T03:30:54;1.40;;;0.90;;
11490;SDS011;5802;52.832;4.758;2022-07-11T03:33:21;1.52;;;1.00;;
11490;SDS011;5802;52.832;4.758;2022-07-11T03:35:48;1.50;;;1.10;;
11490;SDS011;5802;52.832;4.758;2022-07-11T03:38:18;1.75;;;1.00;;
11490;SDS011;5802;52.832;4.758;2022-07-11T03:40:45;1.58;;;1.10;;
11490;SDS011;5802;52.832;4.758;2022-07-11T03:43:13;1.70;;;1.10;;
11490;SDS011;5802;52.832;4.758;2022-07-11T03:45:40;1.20;;;1.10;;
11490;SDS011;5802;52.832;4.758;2022-07-11T03:48:07;1.83;;;1.17;;
11490;SDS011;5802;52.832;4.758;2022-07-11T03:50:34;1.20;;;0.85;;
11490;SDS011;5802;52.832;4.758;2022-07-11T03:53:01;1.00;;;0.90;;
11490;SDS011;5802;52.832;4.758;2022-07-11T03:55:30;1.00;;;0.85;;
11490;SDS011;5802;52.832;4.758;2022-07-11T03:57:57;2.55;;;1.00;;
11490;SDS011;5802;52.832;4.758;2022-07-11T04:00:23;1.08;;;0.90;;
11490;SDS011;5802;52.832;4.758;2022-07-11T04:02:50;2.10;;;1.10;;
11490;SDS011;5802;52.832;4.758;2022-07-11T04:05:17;2.17;;;0.90;;
11490;SDS011;5802;52.832;4.758;2022-07-11T04:07:44;1.10;;;1.00;;
11490;SDS011;5802;52.832;4.758;2022-07-11T04:10:10;1.90;;;0.85;;
11490;SDS011;5802;52.832;4.758;2022-07-11T04:12:39;1.67;;;1.17;;
11490;SDS011;5802;52.832;4.758;2022-07-11T04:15:07;1.50;;;0.90;;
11490;SDS011;5802;52.832;4.758;2022-07-11T04:17:34;1.20;;;0.98;;
11490;SDS011;5802;52.832;4.758;2022-07-11T04:20:01;1.65;;;0.90;;
11490;SDS011;5802;52.832;4.758;2022-07-11T04:22:29;1.00;;;0.90;;
11490;SDS011;5802;52.832;4.758;2022-07-11T04:24:56;1.23;;;1.00;;
11490;SDS011;5802;52.832;4.758;2022-07-11T04:27:23;1.33;;;0.90;;
11490;SDS011;5802;52.832;4.758;2022-07-11T04:29:51;0.80;;;0.77;;
11490;SDS011;5802;52.832;4.758;2022-07-11T04:32:18;1.92;;;0.90;;
11490;SDS011;5802;52.832;4.758;2022-07-11T04:34:46;1.52;;;0.88;;
11490;SDS011;5802;52.832;4.758;2022-07-11T04:37:12;1.75;;;1.13;;
11490;SDS011;5802;52.832;4.758;2022-07-11T04:39:39;1.48;;;0.98;;
11490;SDS011;5802;52.832;4.758;2022-07-11T04:42:06;1.13;;;0.88;;
11490;SDS011;5802;52.832;4.758;2022-07-11T04:44:33;1.60;;;1.13;;
11490;SDS011;5802;52.832;4.758;2022-07-11T04:47:01;1.45;;;0.98;;
11490;SDS011;5802;52.832;4.758;2022-07-11T04:49:28;1.40;;;1.10;;
11490;SDS011;5802;52.832;4.758;2022-07-11T04:51:55;1.50;;;1.00;;
11490;SDS011;5802;52.832;4.758;2022-07-11T04:54:22;1.13;;;1.00;;
11490;SDS011;5802;52.832;4.758;2022-07-11T04:56:49;1.17;;;0.88;;
11490;SDS011;5802;52.832;4.758;2022-07-11T04:59:16;1.52;;;1.00;;
11490;SDS011;5802;52.832;4.758;2022-07-11T05:01:42;1.75;;;0.90;;
11490;SDS011;5802;52.832;4.758;2022-07-11T05:04:11;1.40;;;0.80;;
11490;SDS011;5802;52.832;4.758;2022-07-11T05:06:37;1.77;;;1.00;;
11490;SDS011;5802;52.832;4.758;2022-07-11T05:09:04;1.00;;;0.90;;
11490;SDS011;5802;52.832;4.758;2022-07-11T05:11:32;0.95;;;0.80;;
11490;SDS011;5802;52.832;4.758;2022-07-11T05:13:59;1.33;;;0.90;;
11490;SDS011;5802;52.832;4.758;2022-07-11T05:16:26;1.30;;;1.00;;
11490;SDS011;5802;52.832;4.758;2022-07-11T05:18:54;1.20;;;0.80;;
11490;SDS011;5802;52.832;4.758;2022-07-11T05:21:22;0.85;;;0.60;;
11490;SDS011;5802;52.832;4.758;2022-07-11T05:23:49;1.20;;;0.70;;
11490;SDS011;5802;52.832;4.758;2022-07-11T05:26:17;0.75;;;0.70;;
11490;SDS011;5802;52.832;4.758;2022-07-11T05:28:45;1.17;;;0.73;;
11490;SDS011;5802;52.832;4.758;2022-07-11T05:31:12;0.73;;;0.73;;
11490;SDS011;5802;52.832;4.758;2022-07-11T05:33:38;1.20;;;0.80;;
11490;SDS011;5802;52.832;4.758;2022-07-11T05:36:05;1.17;;;0.80;;
11490;SDS011;5802;52.832;4.758;2022-07-11T05:38:35;1.48;;;0.90;;
11490;SDS011;5802;52.832;4.758;2022-07-11T05:41:01;0.95;;;0.80;;
11490;SDS011;5802;52.832;4.758;2022-07-11T05:43:28;1.02;;;0.80;;
11490;SDS011;5802;52.832;4.758;2022-07-11T05:45:55;2.00;;;0.80;;
11490;SDS011;5802;52.832;4.758;2022-07-11T05:48:22;0.88;;;0.70;;
11490;SDS011;5802;52.832;4.758;2022-07-11T05:50:49;1.10;;;0.70;;
11490;SDS011;5802;52.832;4.758;2022-07-11T05:53:15;1.58;;;0.75;;
11490;SDS011;5802;52.832;4.758;2022-07-11T05:55:43;0.85;;;0.65;;
11490;SDS011;5802;52.832;4.758;2022-07-11T05:58:10;1.10;;;0.80;;
11490;SDS011;5802;52.832;4.758;2022-07-11T06:00:37;0.80;;;0.70;;
11490;SDS011;5802;52.832;4.758;2022-07-11T06:03:04;1.25;;;0.82;;
11490;SDS011;5802;52.832;4.758;2022-07-11T06:05:31;1.33;;;0.82;;
11490;SDS011;5802;52.832;4.758;2022-07-11T06:07:57;1.10;;;0.70;;
11490;SDS011;5802;52.832;4.758;2022-07-11T06:10:44;0.98;;;0.55;;
11490;SDS011;5802;52.832;4.758;2022-07-11T06:13:11;1.10;;;0.80;;
11490;SDS011;5802;52.832;4.758;2022-07-11T06:15:38;2.22;;;0.60;;
11490;SDS011;5802;52.832;4.758;2022-07-11T06:18:05;1.52;;;0.80;;
11490;SDS011;5802;52.832;4.758;2022-07-11T06:20:32;0.70;;;0.55;;
11490;SDS011;5802;52.832;4.758;2022-07-11T06:22:58;1.20;;;0.63;;
11490;SDS011;5802;52.832;4.758;2022-07-11T06:25:25;0.65;;;0.50;;
11490;SDS011;5802;52.832;4.758;2022-07-11T06:27:53;0.80;;;0.50;;
11490;SDS011;5802;52.832;4.758;2022-07-11T06:30:20;1.60;;;0.73;;
11490;SDS011;5802;52.832;4.758;2022-07-11T06:32:47;1.17;;;0.50;;
11490;SDS011;5802;52.832;4.758;2022-07-11T06:35:13;2.05;;;0.68;;
11490;SDS011;5802;52.832;4.758;2022-07-11T06:37:40;1.75;;;0.40;;
11490;SDS011;5802;52.832;4.758;2022-07-11T06:40:07;0.47;;;0.47;;
11490;SDS011;5802;52.832;4.758;2022-07-11T06:42:36;0.88;;;0.30;;
11490;SDS011;5802;52.832;4.758;2022-07-11T06:45:05;1.55;;;0.40;;
11490;SDS011;5802;52.832;4.758;2022-07-11T06:47:33;0.60;;;0.50;;
11490;SDS011;5802;52.832;4.758;2022-07-11T06:50:00;0.75;;;0.50;;
11490;SDS011;5802;52.832;4.758;2022-07-11T06:52:26;0.50;;;0.32;;
11490;SDS011;5802;52.832;4.758;2022-07-11T06:54:53;0.75;;;0.32;;
11490;SDS011;5802;52.832;4.758;2022-07-11T06:57:20;0.30;;;0.30;;
11490;SDS011;5802;52.832;4.758;2022-07-11T06:59:46;0.80;;;0.40;;
11490;SDS011;5802;52.832;4.758;2022-07-11T07:02:15;1.77;;;0.40;;
11490;SDS011;5802;52.832;4.758;2022-07-11T07:04:42;0.30;;;0.30;;
11490;SDS011;5802;52.832;4.758;2022-07-11T07:07:08;0.88;;;0.40;;
11490;SDS011;5802;52.832;4.758;2022-07-11T07:09:35;1.80;;;0.57;;
11490;SDS011;5802;52.832;4.758;2022-07-11T07:12:02;0.77;;;0.47;;
11490;SDS011;5802;52.832;4.758;2022-07-11T07:14:29;0.50;;;0.30;;
11490;SDS011;5802;52.832;4.758;2022-07-11T07:16:56;0.60;;;0.50;;
11490;SDS011;5802;52.832;4.758;2022-07-11T07:19:24;0.20;;;0.20;;
11490;SDS011;5802;52.832;4.758;2022-07-11T07:21:50;1.20;;;0.32;;
11490;SDS011;5802;52.832;4.758;2022-07-11T07:24:17;0.60;;;0.40;;
11490;SDS011;5802;52.832;4.758;2022-07-11T07:26:44;0.95;;;0.38;;
11490;SDS011;5802;52.832;4.758;2022-07-11T07:29:11;0.20;;;0.20;;
11490;SDS011;5802;52.832;4.758;2022-07-11T07:31:37;0.30;;;0.30;;
11490;SDS011;5802;52.832;4.758;2022-07-11T07:34:04;0.20;;;0.20;;
11490;SDS011;5802;52.832;4.758;2022-07-11T07:36:32;0.32;;;0.32;;
11490;SDS011;5802;52.832;4.758;2022-07-11T07:38:59;1.00;;;0.40;;
11490;SDS011;5802;52.832;4.758;2022-07-11T07:41:27;0.90;;;0.32;;
11490;SDS011;5802;52.832;4.758;2022-07-11T07:43:53;0.50;;;0.50;;
11490;SDS011;5802;52.832;4.758;2022-07-11T07:46:20;0.28;;;0.22;;
11490;SDS011;5802;52.832;4.758;2022-07-11T07:48:47;0.55;;;0.40;;
11490;SDS011;5802;52.832;4.758;2022-07-11T07:51:14;0.50;;;0.40;;
11490;SDS011;5802;52.832;4.758;2022-07-11T07:53:42;0.85;;;0.28;;
11490;SDS011;5802;52.832;4.758;2022-07-11T07:56:08;0.47;;;0.43;;
11490;SDS011;5802;52.832;4.758;2022-07-11T07:58:35;0.20;;;0.20;;
11490;SDS011;5802;52.832;4.758;2022-07-11T08:01:03;3.40;;;0.57;;
11490;SDS011;5802;52.832;4.758;2022-07-11T08:03:47;0.40;;;0.30;;
11490;SDS011;5802;52.832;4.758;2022-07-11T08:06:14;0.40;;;0.40;;
11490;SDS011;5802;52.832;4.758;2022-07-11T08:08:42;1.00;;;0.40;;
11490;SDS011;5802;52.832;4.758;2022-07-11T08:11:09;0.65;;;0.50;;
11490;SDS011;5802;52.832;4.758;2022-07-11T08:13:36;1.27;;;0.40;;
11490;SDS011;5802;52.832;4.758;2022-07-11T08:16:03;1.00;;;0.50;;
11490;SDS011;5802;52.832;4.758;2022-07-11T08:18:31;0.63;;;0.60;;
11490;SDS011;5802;52.832;4.758;2022-07-11T08:20:58;0.73;;;0.60;;
11490;SDS011;5802;52.832;4.758;2022-07-11T08:23:26;0.30;;;0.30;;
11490;SDS011;5802;52.832;4.758;2022-07-11T08:25:53;0.45;;;0.30;;
11490;SDS011;5802;52.832;4.758;2022-07-11T08:28:20;0.47;;;0.38;;
11490;SDS011;5802;52.832;4.758;2022-07-11T08:30:47;0.57;;;0.50;;
11490;SDS011;5802;52.832;4.758;2022-07-11T08:33:14;0.30;;;0.30;;
11490;SDS011;5802;52.832;4.758;2022-07-11T08:35:41;1.10;;;0.30;;
11490;SDS011;5802;52.832;4.758;2022-07-11T08:38:07;0.55;;;0.30;;
11490;SDS011;5802;52.832;4.758;2022-07-11T08:40:34;0.43;;;0.43;;
11490;SDS011;5802;52.832;4.758;2022-07-11T08:43:02;2.15;;;0.55;;
11490;SDS011;5802;52.832;4.758;2022-07-11T08:45:40;0.43;;;0.43;;
11490;SDS011;5802;52.832;4.758;2022-07-11T08:48:07;0.77;;;0.40;;
11490;SDS011;5802;52.832;4.758;2022-07-11T08:50:35;1.25;;;0.38;;
11490;SDS011;5802;52.832;4.758;2022-07-11T08:53:02;0.50;;;0.25;;
11490;SDS011;5802;52.832;4.758;2022-07-11T08:55:29;0.95;;;0.60;;
11490;SDS011;5802;52.832;4.758;2022-07-11T08:57:56;0.47;;;0.40;;
11490;SDS011;5802;52.832;4.758;2022-07-11T09:00:25;0.80;;;0.40;;
11490;SDS011;5802;52.832;4.758;2022-07-11T09:02:52;1.65;;;0.60;;
11490;SDS011;5802;52.832;4.758;2022-07-11T09:05:19;1.20;;;0.40;;
11490;SDS011;5802;52.832;4.758;2022-07-11T09:07:47;0.70;;;0.57;;
11490;SDS011;5802;52.832;4.758;2022-07-11T09:10:15;0.40;;;0.40;;
11490;SDS011;5802;52.832;4.758;2022-07-11T09:12:57;1.15;;;0.50;;
11490;SDS011;5802;52.832;4.758;2022-07-11T09:15:33;0.80;;;0.50;;
11490;SDS011;5802;52.832;4.758;2022-07-11T09:18:02;0.80;;;0.52;;
11490;SDS011;5802;52.832;4.758;2022-07-11T09:20:40;0.50;;;0.50;;
11490;SDS011;5802;52.832;4.758;2022-07-11T09:23:35;0.60;;;0.40;;
11490;SDS011;5802;52.832;4.758;2022-07-11T09:26:20;0.50;;;0.50;;
11490;SDS011;5802;52.832;4.758;2022-07-11T09:28:57;1.27;;;0.70;;
11490;SDS011;5802;52.832;4.758;2022-07-11T09:31:30;0.80;;;0.68;;
11490;SDS011;5802;52.832;4.758;2022-07-11T09:34:00;1.00;;;0.70;;
11490;SDS011;5802;52.832;4.758;2022-07-11T09:36:36;1.20;;;0.90;;
11490;SDS011;5802;52.832;4.758;2022-07-11T09:39:08;1.33;;;0.70;;
11490;SDS011;5802;52.832;4.758;2022-07-11T09:41:37;0.85;;;0.60;;
11490;SDS011;5802;52.832;4.758;2022-07-11T09:44:08;1.33;;;0.80;;
11490;SDS011;5802;52.832;4.758;2022-07-11T09:46:40;1.33;;;0.80;;
11490;SDS011;5802;52.832;4.758;2022-07-11T09:49:08;0.95;;;0.80;;
11490;SDS011;5802;52.832;4.758;2022-07-11T09:51:35;0.90;;;0.70;;
11490;SDS011;5802;52.832;4.758;2022-07-11T09:54:03;0.85;;;0.70;;
11490;SDS011;5802;52.832;4.758;2022-07-11T09:56:34;1.20;;;0.90;;
11490;SDS011;5802;52.832;4.758;2022-07-11T09:59:04;1.50;;;0.90;;
11490;SDS011;5802;52.832;4.758;2022-07-11T10:01:32;0.70;;;0.70;;
11490;SDS011;5802;52.832;4.758;2022-07-11T10:04:01;0.80;;;0.80;;
11490;SDS011;5802;52.832;4.758;2022-07-11T10:06:28;2.30;;;1.00;;
11490;SDS011;5802;52.832;4.758;2022-07-11T10:08:55;2.70;;;1.05;;
11490;SDS011;5802;52.832;4.758;2022-07-11T10:11:22;1.08;;;0.90;;
11490;SDS011;5802;52.832;4.758;2022-07-11T10:13:50;4.15;;;1.02;;
11490;SDS011;5802;52.832;4.758;2022-07-11T10:16:21;6.90;;;1.33;;
11490;SDS011;5802;52.832;4.758;2022-07-11T10:18:53;6.80;;;2.30;;
11490;SDS011;5802;52.832;4.758;2022-07-11T10:21:31;8.50;;;3.50;;
11490;SDS011;5802;52.832;4.758;2022-07-11T10:24:07;15.55;;;5.60;;
11490;SDS011;5802;52.832;4.758;2022-07-11T10:26:49;20.27;;;9.27;;
11490;SDS011;5802;52.832;4.758;2022-07-11T10:29:22;21.20;;;9.52;;
11490;SDS011;5802;52.832;4.758;2022-07-11T10:32:04;13.75;;;6.97;;
11490;SDS011;5802;52.832;4.758;2022-07-11T10:34:32;11.88;;;5.40;;
11490;SDS011;5802;52.832;4.758;2022-07-11T10:37:01;9.00;;;3.90;;
11490;SDS011;5802;52.832;4.758;2022-07-11T10:39:29;5.88;;;3.08;;
11490;SDS011;5802;52.832;4.758;2022-07-11T10:41:58;5.03;;;2.35;;
11490;SDS011;5802;52.832;4.758;2022-07-11T10:44:26;4.05;;;2.28;;
11490;SDS011;5802;52.832;4.758;2022-07-11T10:46:55;2.05;;;1.52;;
11490;SDS011;5802;52.832;4.758;2022-07-11T10:49:25;1.75;;;1.42;;
11490;SDS011;5802;52.832;4.758;2022-07-11T10:52:05;4.45;;;1.77;;
11490;SDS011;5802;52.832;4.758;2022-07-11T10:57:26;3.00;;;1.30;;
11490;SDS011;5802;52.832;4.758;2022-07-11T10:59:58;2.17;;;1.15;;
11490;SDS011;5802;52.832;4.758;2022-07-11T11:02:26;1.13;;;1.00;;
11490;SDS011;5802;52.832;4.758;2022-07-11T11:04:54;2.28;;;1.10;;
11490;SDS011;5802;52.832;4.758;2022-07-11T11:07:28;1.75;;;1.20;;
11490;SDS011;5802;52.832;4.758;2022-07-11T11:09:57;2.00;;;1.20;;
11490;SDS011;5802;52.832;4.758;2022-07-11T11:15:33;2.15;;;1.13;;
11490;SDS011;5802;52.832;4.758;2022-07-11T11:21:18;1.13;;;0.80;;
11490;SDS011;5802;52.832;4.758;2022-07-11T11:24:01;2.95;;;0.80;;
11490;SDS011;5802;52.832;4.758;2022-07-11T11:26:46;1.60;;;1.00;;
11490;SDS011;5802;52.832;4.758;2022-07-11T11:29:18;1.33;;;1.00;;
11490;SDS011;5802;52.832;4.758;2022-07-11T11:31:50;1.52;;;1.00;;
11490;SDS011;5802;52.832;4.758;2022-07-11T11:34:18;1.33;;;1.02;;
11490;SDS011;5802;52.832;4.758;2022-07-11T11:36:51;1.45;;;0.77;;
11490;SDS011;5802;52.832;4.758;2022-07-11T11:39:24;2.67;;;1.10;;
11490;SDS011;5802;52.832;4.758;2022-07-11T11:41:52;1.70;;;0.80;;
11490;SDS011;5802;52.832;4.758;2022-07-11T11:44:20;1.70;;;0.90;;
11490;SDS011;5802;52.832;4.758;2022-07-11T11:46:50;1.27;;;0.95;;
11490;SDS011;5802;52.832;4.758;2022-07-11T11:49:17;1.20;;;1.10;;
11490;SDS011;5802;52.832;4.758;2022-07-11T11:51:44;1.25;;;0.90;;
11490;SDS011;5802;52.832;4.758;2022-07-11T11:54:19;2.83;;;1.00;;
11490;SDS011;5802;52.832;4.758;2022-07-11T11:56:49;2.08;;;1.00;;
11490;SDS011;5802;52.832;4.758;2022-07-11T11:59:16;6.18;;;1.02;;
11490;SDS011;5802;52.832;4.758;2022-07-11T12:01:44;1.98;;;0.93;;
11490;SDS011;5802;52.832;4.758;2022-07-11T12:04:12;1.50;;;0.90;;
11490;SDS011;5802;52.832;4.758;2022-07-11T12:06:41;1.48;;;1.00;;
11490;SDS011;5802;52.832;4.758;2022-07-11T12:09:09;1.05;;;0.88;;
11490;SDS011;5802;52.832;4.758;2022-07-11T12:11:38;2.40;;;1.10;;
11490;SDS011;5802;52.832;4.758;2022-07-11T12:14:09;1.38;;;1.00;;
11490;SDS011;5802;52.832;4.758;2022-07-11T12:16:39;1.10;;;0.90;;
11490;SDS011;5802;52.832;4.758;2022-07-11T12:19:12;2.25;;;1.00;;
11490;SDS011;5802;52.832;4.758;2022-07-11T12:21:41;2.03;;;1.10;;
11490;SDS011;5802;52.832;4.758;2022-07-11T12:24:10;2.35;;;0.88;;
11490;SDS011;5802;52.832;4.758;2022-07-11T12:26:38;2.88;;;1.00;;
11490;SDS011;5802;52.832;4.758;2022-07-11T12:29:08;4.78;;;1.00;;
11490;SDS011;5802;52.832;4.758;2022-07-11T12:31:43;1.52;;;0.82;;
11490;SDS011;5802;52.832;4.758;2022-07-11T12:34:11;1.10;;;0.80;;
11490;SDS011;5802;52.832;4.758;2022-07-11T12:36:39;2.42;;;1.15;;
11490;SDS011;5802;52.832;4.758;2022-07-11T12:39:06;1.00;;;0.90;;
11490;SDS011;5802;52.832;4.758;2022-07-11T12:41:33;3.58;;;1.10;;
11490;SDS011;5802;52.832;4.758;2022-07-11T12:44:01;1.42;;;0.80;;
11490;SDS011;5802;52.832;4.758;2022-07-11T12:46:47;1.77;;;0.80;;
11490;SDS011;5802;52.832;4.758;2022-07-11T12:49:14;1.52;;;1.02;;
11490;SDS011;5802;52.832;4.758;2022-07-11T12:51:42;3.28;;;0.80;;
11490;SDS011;5802;52.832;4.758;2022-07-11T12:54:11;1.83;;;0.90;;
11490;SDS011;5802;52.832;4.758;2022-07-11T12:56:40;3.63;;;1.08;;
11490;SDS011;5802;52.832;4.758;2022-07-11T12:59:21;3.00;;;1.08;;
11490;SDS011;5802;52.832;4.758;2022-07-11T13:01:57;1.23;;;0.90;;
11490;SDS011;5802;52.832;4.758;2022-07-11T13:04:29;2.50;;;0.80;;
11490;SDS011;5802;52.832;4.758;2022-07-11T13:10:06;1.25;;;0.80;;
11490;SDS011;5802;52.832;4.758;2022-07-11T13:12:34;3.72;;;0.80;;
11490;SDS011;5802;52.832;4.758;2022-07-11T13:15:02;1.52;;;1.05;;
11490;SDS011;5802;52.832;4.758;2022-07-11T13:17:39;1.10;;;1.00;;
11490;SDS011;5802;52.832;4.758;2022-07-11T13:20:08;1.08;;;0.80;;
11490;SDS011;5802;52.832;4.758;2022-07-11T13:22:38;1.33;;;1.00;;
11490;SDS011;5802;52.832;4.758;2022-07-11T13:25:07;1.20;;;0.80;;
11490;SDS011;5802;52.832;4.758;2022-07-11T13:27:36;1.52;;;1.00;;
11490;SDS011;5802;52.832;4.758;2022-07-11T13:30:04;1.67;;;1.00;;
11490;SDS011;5802;52.832;4.758;2022-07-11T13:32:36;1.88;;;1.00;;
11490;SDS011;5802;52.832;4.758;2022-07-11T13:35:05;1.30;;;1.00;;
11490;SDS011;5802;52.832;4.758;2022-07-11T13:37:33;1.50;;;1.00;;
11490;SDS011;5802;52.832;4.758;2022-07-11T13:40:03;1.60;;;1.08;;
11490;SDS011;5802;52.832;4.758;2022-07-11T13:42:30;2.00;;;1.30;;
11490;SDS011;5802;52.832;4.758;2022-07-11T13:44:57;1.50;;;1.02;;
11490;SDS011;5802;52.832;4.758;2022-07-11T13:47:25;1.10;;;1.00;;
11490;SDS011;5802;52.832;4.758;2022-07-11T13:49:53;2.65;;;1.00;;
11490;SDS011;5802;52.832;4.758;2022-07-11T13:52:19;1.20;;;1.00;;
11490;SDS011;5802;52.832;4.758;2022-07-11T13:54:46;1.63;;;1.20;;
11490;SDS011;5802;52.832;4.758;2022-07-11T13:57:13;1.30;;;0.90;;
11490;SDS011;5802;52.832;4.758;2022-07-11T13:59:40;1.25;;;1.10;;
11490;SDS011;5802;52.832;4.758;2022-07-11T14:02:07;1.85;;;0.95;;
11490;SDS011;5802;52.832;4.758;2022-07-11T14:04:34;1.52;;;0.93;;
11490;SDS011;5802;52.832;4.758;2022-07-11T14:07:02;2.13;;;0.95;;
11490;SDS011;5802;52.832;4.758;2022-07-11T14:09:29;4.30;;;1.17;;
11490;SDS011;5802;52.832;4.758;2022-07-11T14:11:57;2.45;;;1.33;;
11490;SDS011;5802;52.832;4.758;2022-07-11T14:14:24;1.27;;;0.82;;
11490;SDS011;5802;52.832;4.758;2022-07-11T14:16:51;1.33;;;0.80;;
11490;SDS011;5802;52.832;4.758;2022-07-11T14:19:18;2.95;;;1.00;;
11490;SDS011;5802;52.832;4.758;2022-07-11T14:21:45;1.13;;;0.82;;
11490;SDS011;5802;52.832;4.758;2022-07-11T14:24:12;2.53;;;1.10;;
11490;SDS011;5802;52.832;4.758;2022-07-11T14:26:41;1.27;;;0.80;;
11490;SDS011;5802;52.832;4.758;2022-07-11T14:29:08;1.20;;;1.00;;
11490;SDS011;5802;52.832;4.758;2022-07-11T14:31:35;1.52;;;0.95;;
11490;SDS011;5802;52.832;4.758;2022-07-11T14:34:02;1.77;;;1.10;;
11490;SDS011;5802;52.832;4.758;2022-07-11T14:36:29;1.05;;;0.77;;
11490;SDS011;5802;52.832;4.758;2022-07-11T14:38:56;2.75;;;1.00;;
11490;SDS011;5802;52.832;4.758;2022-07-11T14:41:24;1.50;;;0.88;;
11490;SDS011;5802;52.832;4.758;2022-07-11T14:43:51;1.30;;;0.85;;
11490;SDS011;5802;52.832;4.758;2022-07-11T14:46:18;1.33;;;0.80;;
11490;SDS011;5802;52.832;4.758;2022-07-11T14:48:47;3.20;;;1.38;;
11490;SDS011;5802;52.832;4.758;2022-07-11T14:51:13;2.45;;;0.88;;
11490;SDS011;5802;52.832;4.758;2022-07-11T14:53:40;3.50;;;1.20;;
11490;SDS011;5802;52.832;4.758;2022-07-11T14:56:07;1.55;;;0.88;;
11490;SDS011;5802;52.832;4.758;2022-07-11T14:58:35;2.80;;;0.90;;
11490;SDS011;5802;52.832;4.758;2022-07-11T15:01:02;1.67;;;1.05;;
11490;SDS011;5802;52.832;4.758;2022-07-11T15:03:29;1.40;;;1.00;;
11490;SDS011;5802;52.832;4.758;2022-07-11T15:06:09;4.03;;;1.00;;
11490;SDS011;5802;52.832;4.758;2022-07-11T15:08:36;1.20;;;0.90;;
11490;SDS011;5802;52.832;4.758;2022-07-11T15:11:21;1.60;;;1.00;;
11490;SDS011;5802;52.832;4.758;2022-07-11T15:14:08;1.95;;;1.25;;
11490;SDS011;5802;52.832;4.758;2022-07-11T15:16:36;3.00;;;1.20;;
11490;SDS011;5802;52.832;4.758;2022-07-11T15:19:04;1.75;;;1.10;;
11490;SDS011;5802;52.832;4.758;2022-07-11T15:21:31;1.88;;;1.10;;